Relevés horaires St-Hubert (Belgique)


Relevés horaires à St-Hubert - Dimanche 07 Août 2022
Heure UTC1 Température [°C] Vent [km/h] Hum. [%] Pres.4 [hPa] Visi. [Km] Nébu. [octa] Préc.5 [mm] Cond.
2m. Res. Ros. Dir.2 Vit. Moy. Raf.3
23:00 13.7 13.5 6.4 NE 7.4 9.3 11.1 61 1024.2(0.3/3h) 45 0/8 -- --
22:00 14.4 14.3 6.2 NE 7.4 9.3 13.0 58 1023.9(0.8/3h) 50 0/8 -- --
21:00 15.3 15.3 6.1 NE 7.4 9.3 14.8 54 1023.6(0.9/3h) 45 0/8 -- --
20:00 16.6 16.6 5.7 NNE 5.6 7.4 11.1 48 1023.2(0.9/3h) 45 0/8 -- --
19:00 18.2 18.2 5.8 N 7.4 9.3 14.8 44 1022.3(0.3/3h) 45 0/8 -- --
18:00 19.6 19.6 5.2 N 7.4 11.1 18.5 39 1021.6(-0.3/3h) 35 0/8 0/12h
--
17:00 20.9 20.9 4.3 N 7.4 9.3 16.7 34 1021.3(-0.5/3h) 35 0/8 -- --
16:00 20.9 20.9 4.2 N 9.3 11.1 18.5 33 1021.4(-0.7/3h) 35 0/8 -- --
15:00 21.6 21.6 5.2 N 7.4 9.3 16.7 34 1021.5(-0.6/3h) 30 0/8 -- --
14:00 21.4 21.4 5.2 NNO 7.4 9.3 16.7 35 1021.7(-0.9/3h) 35 0/8 -- --
13:00 21.0 21.0 4.8 NE 7.4 7.4 14.8 35 1022.1(-1.1/3h) 30 0/8 -- --
12:00 20.6 20.6 4.5 ENE 3.7 9.3 14.8 35 1022.4(-1.1/3h) 35 0/8 0/6h
--
11:00 20.0 20.0 5.5 NNE 5.6 7.4 13.0 39 1023(-1.0/3h) 35 0/8 -- --
10:00 19.1 19.1 5.8 NE 7.4 9.3 13.0 42 1023.7(-0.4/3h) 40 0/8 -- --
09:00 17.7 17.7 5.3 NE 7.4 9.3 13.0 44 1024.3(0.1/3h) 35 0/8 -- --
08:00 16.0 16.0 4.9 NE 7.4 7.4 11.1 48 1025(0.5/3h) 40 0/8 -- --
07:00 13.8 13.6 4.3 NE 7.4 7.4 9.3 53 1025.4(0.5/3h) 40 0/8 -- --
06:00 12.4 12.3 4.1 NE 5.6 7.4 11.1 57 1025.6(0.2/3h) 45 0/8 0/12h
--
05:00 9.5 9 3.6 ENE 5.6 5.6 7.4 67 1026(-0.3/3h) 45 0/8 -- --
04:00 7.3 6.5 4.2 ENE 5.6 7.4 9.3 81 1026.4(-0.6/3h) 45 0/8 -- --
03:00 9.7 8.8 4.5 ENE 7.4 7.4 11.1 70 1026(-1.1/3h) 50 0/8 -- --
02:00 9.7 8.8 4.8 ENE 7.4 7.4 9.3 71 1026.3(-1.2/3h) 45 0/8 -- --
01:00 10.1 9.3 4.8 ENE 7.4 7.4 11.1 70 1026.3(-1.1/3h) 45 0/8 -- --
00:00 10.9 10.2 4.8 NE 7.4 9.3 14.8 66 1026.9(-0.5/3h) 45 0/8 0/6h
0/24h
--

1 Coordinated Universal Time. Actuellement il est 03:00 locale et 02:00 UTC.

2 Le vent souffle depuis la direction indiquée vers la direction oposée.

3 Les rafales max. sont disponible 40 min après l'heure du relevé.

4 Pour les stations d'altitude (plus de 600m) le géopotentiel du niveau le plus proche de la pression obligatoire est indiqué.

5 Les stations disposant d'un diffuseur peuvent indiquer "trace". Cela signifie que des précipitations ont touchés le sol mais que la quantité est inférieure à 0.1 mm.

Récapitulatif de la journée
Température [°C] Vent [km/h] Ensoleillement4 [h] Precipitations totale5 [mm] Pression [Hpa]
Min1 Max.2 Moy.3 Max. Min Max.
7.1 21.9 8.5 18.5 0 h 0 min 0 1021.3 1026.9

1 Température minimale relevée entre 18:00 UTC la veille et 18:00 UTC le jour donné.

2 Température maximale relevée entre 06:00 UTC le jour donné et 06:00 UTC le lendemain.

3 Vent moyen de la journée basé sur les relevés horaires.

4 Ensoleillement en heures relevé entre 06:00 UTC la veille et 06:00 UTC le jour donné.

5 Précipitations totales tombées entre 06:00 UTC la jour donné et 06:00 UTC le lendemain.

Graphiques horaires